createdAt,value
2023-04-26T00:00:22.783Z,604.0000
2023-04-26T00:01:24.510Z,602.6154
2023-04-26T00:02:26.276Z,601.0000
2023-04-26T00:03:27.976Z,600.3077
2023-04-26T00:04:29.659Z,602.3846
2023-04-26T00:05:31.216Z,604.7692
2023-04-26T00:06:32.747Z,606.3846
2023-04-26T00:07:34.403Z,603.5385
2023-04-26T00:08:36.102Z,603.7692
2023-04-26T00:09:37.693Z,603.7692
2023-04-26T00:10:39.330Z,606.2308
2023-04-26T00:11:40.972Z,606.9231
2023-04-26T00:12:42.640Z,607.2308
2023-04-26T00:13:44.858Z,607.3077
2023-04-26T00:14:45.934Z,609.3077
2023-04-26T00:15:47.571Z,612.6154
2023-04-26T00:16:49.328Z,611.4615
2023-04-26T00:17:51.949Z,610.7692
2023-04-26T00:18:53.850Z,610.9231
2023-04-26T00:19:54.129Z,608.8461
2023-04-26T00:20:57.284Z,607.9231
2023-04-26T00:21:57.425Z,607.6923
2023-04-26T00:22:59.155Z,608.3077
2023-04-26T00:24:00.804Z,611.0000
2023-04-26T00:25:02.432Z,613.6154
2023-04-26T00:26:04.112Z,617.7692
2023-04-26T00:27:06.744Z,617.6154
2023-04-26T00:28:07.348Z,617.5385
2023-04-26T00:29:09.018Z,617.0000
2023-04-26T00:30:10.681Z,615.1539
2023-04-26T00:31:12.353Z,614.0769
2023-04-26T00:32:13.965Z,613.6923
2023-04-26T00:33:15.636Z,612.6154
2023-04-26T00:34:17.237Z,610.2308
2023-04-26T00:35:18.897Z,609.0769
2023-04-26T00:36:20.560Z,609.6154
2023-04-26T00:37:22.203Z,611.1539
2023-04-26T00:38:23.892Z,611.0769
2023-04-26T00:39:25.546Z,611.3077
2023-04-26T00:40:27.136Z,611.2308
2023-04-26T00:41:28.819Z,609.9231
2023-04-26T00:42:30.422Z,610.1539
2023-04-26T00:43:32.151Z,610.4615
2023-04-26T00:44:33.765Z,610.3846
2023-04-26T00:45:35.536Z,609.2308
2023-04-26T00:46:37.038Z,608.3846
2023-04-26T00:47:38.782Z,609.6154
2023-04-26T00:48:40.401Z,610.5385
2023-04-26T00:49:42.125Z,612.6923
2023-04-26T00:50:43.629Z,614.5385
2023-04-26T00:51:45.363Z,616.7692
2023-04-26T00:52:46.956Z,617.5385
2023-04-26T00:53:48.653Z,616.6923
2023-04-26T00:54:50.345Z,615.2308
2023-04-26T00:55:52.001Z,612.5385
2023-04-26T00:56:53.559Z,613.3846
2023-04-26T00:57:55.291Z,614.8461
2023-04-26T00:58:56.906Z,615.8461
2023-04-26T00:59:58.589Z,616.4615
2023-04-26T01:01:00.264Z,618.4615
2023-04-26T01:02:01.887Z,618.0000
2023-04-26T01:03:03.670Z,616.3077
2023-04-26T01:04:05.406Z,615.4615
2023-04-26T01:05:06.838Z,616.8461
2023-04-26T01:06:08.506Z,618.9231
2023-04-26T01:07:10.152Z,618.8461
2023-04-26T01:08:11.799Z,617.0769
2023-04-26T01:09:13.412Z,619.0000
2023-04-26T01:10:15.178Z,619.8461
2023-04-26T01:11:16.701Z,615.0000
2023-04-26T01:12:18.384Z,613.5385
2023-04-26T01:13:20.041Z,613.3077
2023-04-26T01:14:21.764Z,616.3077
2023-04-26T01:15:23.324Z,617.3077
2023-04-26T01:16:25.094Z,618.1539
2023-04-26T01:17:26.701Z,618.3846
2023-04-26T01:18:28.326Z,619.0000
2023-04-26T01:19:30.035Z,618.8461
2023-04-26T01:20:31.643Z,618.7692
2023-04-26T01:21:33.286Z,617.0769
2023-04-26T01:22:34.985Z,616.3846
2023-04-26T01:23:36.515Z,616.6154
2023-04-26T01:24:38.264Z,615.8461
2023-04-26T01:25:39.832Z,615.8461
2023-04-26T01:26:41.505Z,616.1539
2023-04-26T01:27:43.190Z,617.1539
2023-04-26T01:28:44.807Z,617.1539
2023-04-26T01:29:47.534Z,619.0769
2023-04-26T01:30:48.200Z,618.5385
2023-04-26T01:31:49.722Z,615.9231
2023-04-26T01:32:51.457Z,615.0769
2023-04-26T01:33:53.013Z,612.6154
2023-04-26T01:34:54.717Z,613.2308
2023-04-26T01:35:56.416Z,613.9231
2023-04-26T01:36:58.014Z,614.3077
2023-04-26T01:37:59.646Z,613.0000
2023-04-26T01:39:01.341Z,613.3077
2023-04-26T01:40:02.986Z,612.6154
2023-04-26T01:41:04.660Z,610.0769
2023-04-26T01:42:06.319Z,609.7692
2023-04-26T01:43:07.951Z,609.3077
2023-04-26T01:44:09.533Z,609.2308
2023-04-26T01:45:11.278Z,609.3846
2023-04-26T01:46:12.957Z,610.3077
2023-04-26T01:47:14.526Z,611.8461
2023-04-26T01:48:16.157Z,610.6923
2023-04-26T01:49:17.844Z,611.8461
2023-04-26T01:50:19.518Z,614.3077
2023-04-26T01:51:21.183Z,613.3846
2023-04-26T01:52:22.795Z,612.0000
2023-04-26T01:53:24.464Z,613.0769
2023-04-26T01:54:26.162Z,613.7692
2023-04-26T01:55:27.796Z,612.7692
2023-04-26T01:56:29.426Z,610.8461
2023-04-26T01:57:31.080Z,610.8461
2023-04-26T01:58:32.707Z,609.6923
2023-04-26T01:59:34.375Z,609.1539
2023-04-26T02:00:36.121Z,608.6154
2023-04-26T02:01:37.755Z,606.3846
2023-04-26T02:02:39.330Z,605.0000
2023-04-26T02:03:41.014Z,605.3077
2023-04-26T02:04:42.666Z,605.6923
2023-04-26T02:05:44.767Z,607.9231
2023-04-26T02:06:45.901Z,609.3077
2023-04-26T02:07:47.616Z,609.5385
2023-04-26T02:08:49.409Z,610.2308
2023-04-26T02:09:50.905Z,612.0769
2023-04-26T02:10:52.559Z,613.6923
2023-04-26T02:11:54.242Z,615.7692
2023-04-26T02:12:55.855Z,616.9231
2023-04-26T02:13:57.484Z,617.1539
2023-04-26T02:14:59.109Z,616.8461
2023-04-26T02:16:00.828Z,614.9231
2023-04-26T02:17:02.450Z,613.0000
2023-04-26T02:18:04.175Z,614.3077
2023-04-26T02:19:05.802Z,613.5385
2023-04-26T02:20:07.389Z,614.3077
2023-04-26T02:21:09.023Z,616.1539
2023-04-26T02:22:10.733Z,618.1539
2023-04-26T02:23:12.353Z,619.9231
2023-04-26T02:24:14.006Z,622.0000
2023-04-26T02:25:15.694Z,619.6923
2023-04-26T02:26:18.238Z,618.3846
2023-04-26T02:27:18.965Z,616.7692
2023-04-26T02:28:20.643Z,618.3846
2023-04-26T02:29:35.958Z,620.6154
2023-04-26T02:30:24.501Z,620.0769
2023-04-26T02:31:25.605Z,618.0769
2023-04-26T02:32:27.270Z,616.7692
2023-04-26T02:33:28.921Z,618.1539
2023-04-26T02:34:30.506Z,620.0000
2023-04-26T02:35:32.203Z,621.3077
2023-04-26T02:36:33.817Z,621.0769
2023-04-26T02:37:35.832Z,620.0000
2023-04-26T02:38:37.313Z,619.0769
2023-04-26T02:39:38.756Z,616.6154
2023-04-26T02:40:40.390Z,617.9231
2023-04-26T02:41:42.081Z,616.0769
2023-04-26T02:42:43.723Z,616.8461
2023-04-26T02:43:45.426Z,617.1539
2023-04-26T02:44:46.988Z,614.8461
2023-04-26T02:45:48.670Z,616.3846
2023-04-26T02:46:50.332Z,616.9231
2023-04-26T02:47:52.064Z,617.0000
2023-04-26T02:48:54.052Z,617.9231
2023-04-26T02:49:55.343Z,618.2308
2023-04-26T02:50:56.909Z,618.3077
2023-04-26T02:51:58.489Z,618.2308
2023-04-26T02:53:00.672Z,617.2308
2023-04-26T02:54:01.824Z,615.3846
2023-04-26T02:55:03.745Z,615.0769
2023-04-26T02:56:05.110Z,615.9231
2023-04-26T02:57:06.724Z,616.6923
2023-04-26T02:58:08.380Z,617.6154
2023-04-26T02:59:10.022Z,616.7692
2023-04-26T03:00:11.748Z,615.2308
2023-04-26T03:01:13.397Z,615.3077
2023-04-26T03:02:15.088Z,614.6154
2023-04-26T03:03:16.916Z,614.2308
2023-04-26T03:04:18.461Z,615.3846
2023-04-26T03:05:20.201Z,615.0000
2023-04-26T03:06:21.594Z,615.3846
2023-04-26T03:07:23.302Z,617.1539
2023-04-26T03:08:24.931Z,616.7692
2023-04-26T03:09:26.625Z,615.6923
2023-04-26T03:10:28.234Z,614.9231
2023-04-26T03:11:29.875Z,614.7692
2023-04-26T03:12:31.564Z,617.1539
2023-04-26T03:13:33.123Z,618.9231
2023-04-26T03:14:36.768Z,618.2308
2023-04-26T03:15:36.459Z,619.3846
2023-04-26T03:16:38.190Z,620.2308
2023-04-26T03:17:39.781Z,621.0769
2023-04-26T03:18:41.448Z,621.0000
2023-04-26T03:19:43.077Z,620.9231
2023-04-26T03:20:44.783Z,624.0000
2023-04-26T03:21:46.370Z,624.7692
2023-04-26T03:22:48.055Z,625.5385
2023-04-26T03:23:49.657Z,627.0000
2023-04-26T03:24:51.482Z,627.8461
2023-04-26T03:25:53.165Z,627.3077
2023-04-26T03:26:54.782Z,626.6923
2023-04-26T03:27:56.364Z,626.4615
2023-04-26T03:28:58.672Z,627.1539
2023-04-26T03:29:59.720Z,627.1539
2023-04-26T03:31:01.397Z,628.5385
2023-04-26T03:32:03.723Z,626.7692
2023-04-26T03:33:04.647Z,628.9231
2023-04-26T03:34:06.270Z,630.7692
2023-04-26T03:35:07.971Z,628.1539
2023-04-26T03:36:09.678Z,627.0000
2023-04-26T03:37:11.287Z,624.3846
2023-04-26T03:38:12.905Z,623.1539
2023-04-26T03:39:14.548Z,623.0769
2023-04-26T03:40:16.208Z,622.3077
2023-04-26T03:41:17.917Z,619.5385
2023-04-26T03:42:19.746Z,619.9231
2023-04-26T03:43:21.226Z,622.2308
2023-04-26T03:44:22.764Z,624.4615
2023-04-26T03:45:24.470Z,624.8461
2023-04-26T03:46:26.149Z,625.9231
2023-04-26T03:47:27.814Z,626.3077
2023-04-26T03:48:29.440Z,626.0769
2023-04-26T03:49:31.112Z,626.5385
2023-04-26T03:50:32.704Z,627.3846
2023-04-26T03:51:34.378Z,627.3846
2023-04-26T03:52:35.991Z,627.7692
2023-04-26T03:53:37.771Z,627.3846
2023-04-26T03:54:39.292Z,626.1539
2023-04-26T03:55:40.957Z,624.0000
2023-04-26T03:56:42.626Z,621.1539
2023-04-26T03:57:44.360Z,617.7692
2023-04-26T03:58:46.233Z,618.1539
2023-04-26T03:59:47.621Z,620.6154
2023-04-26T04:00:50.205Z,620.6154
2023-04-26T04:01:50.894Z,620.5385
2023-04-26T04:02:52.643Z,621.2308
2023-04-26T04:03:54.989Z,624.4615
2023-04-26T04:04:55.971Z,629.3077
2023-04-26T04:05:57.512Z,624.8461
2023-04-26T04:06:59.147Z,623.6154
2023-04-26T04:08:00.808Z,624.5385
2023-04-26T04:09:02.762Z,626.2308
2023-04-26T04:10:04.144Z,625.8461
2023-04-26T04:11:05.724Z,626.6154
2023-04-26T04:12:08.246Z,626.3846
2023-04-26T04:13:09.020Z,627.4615
2023-04-26T04:14:10.776Z,627.6923
2023-04-26T04:15:12.391Z,627.6923
2023-04-26T04:16:14.755Z,626.5385
2023-04-26T04:17:15.625Z,628.6154
2023-04-26T04:18:17.355Z,628.5385
2023-04-26T04:19:19.110Z,627.4615
2023-04-26T04:20:21.306Z,624.5385
2023-04-26T04:21:22.295Z,620.9231
2023-04-26T04:22:23.952Z,617.7692
2023-04-26T04:23:25.544Z,619.3077
2023-04-26T04:24:27.298Z,621.0769
2023-04-26T04:25:28.837Z,620.5385
2023-04-26T04:26:30.565Z,620.1539
2023-04-26T04:27:32.146Z,619.1539
2023-04-26T04:28:33.846Z,618.5385
2023-04-26T04:29:35.438Z,618.8461
2023-04-26T04:30:37.122Z,616.9231
2023-04-26T04:31:38.876Z,616.3077
2023-04-26T04:32:40.832Z,617.1539
2023-04-26T04:33:42.100Z,618.3846
2023-04-26T04:34:43.737Z,619.6923
2023-04-26T04:35:46.223Z,621.3846
2023-04-26T04:36:47.069Z,622.9231
2023-04-26T04:37:48.713Z,619.2308
2023-04-26T04:38:50.609Z,619.9231
2023-04-26T04:39:51.940Z,619.6154
2023-04-26T04:40:53.684Z,621.2308
2023-04-26T04:41:55.538Z,619.0000
2023-04-26T04:42:56.966Z,616.9231
2023-04-26T04:43:58.619Z,616.3077
2023-04-26T04:45:00.210Z,618.9231
2023-04-26T04:46:01.936Z,616.9231
2023-04-26T04:47:03.610Z,615.6923
2023-04-26T04:48:05.413Z,617.7692
2023-04-26T04:49:07.938Z,619.8461
2023-04-26T04:50:09.025Z,620.4615
2023-04-26T04:51:10.268Z,620.0000
2023-04-26T04:52:12.027Z,621.3846
2023-04-26T04:53:13.648Z,622.0000
2023-04-26T04:54:15.278Z,619.2308
2023-04-26T04:55:16.914Z,619.6154
2023-04-26T04:56:18.588Z,617.4615
2023-04-26T04:57:20.205Z,614.1539
2023-04-26T04:58:21.900Z,612.1539
2023-04-26T04:59:23.475Z,612.3846
2023-04-26T05:00:25.174Z,613.1539
2023-04-26T05:01:26.792Z,612.7692
2023-04-26T05:02:28.664Z,614.7692
2023-04-26T05:03:30.262Z,612.0000
2023-04-26T05:04:32.199Z,611.2308
2023-04-26T05:05:33.359Z,608.5385
2023-04-26T05:06:35.177Z,606.5385
2023-04-26T05:07:36.734Z,604.8461
2023-04-26T05:08:38.365Z,603.5385
2023-04-26T05:09:40.064Z,605.7692
2023-04-26T05:10:41.702Z,606.1539
2023-04-26T05:11:43.266Z,604.1539
2023-04-26T05:12:45.095Z,604.7692
2023-04-26T05:13:46.614Z,603.9231
2023-04-26T05:14:48.248Z,601.8461
2023-04-26T05:15:49.890Z,600.3846
2023-04-26T05:16:51.747Z,599.3077
2023-04-26T05:17:53.220Z,599.9231
2023-04-26T05:18:54.985Z,600.3077
2023-04-26T05:19:56.512Z,602.5385
2023-04-26T05:20:58.190Z,602.7692
2023-04-26T05:21:59.852Z,605.0000
2023-04-26T05:23:01.508Z,604.5385
2023-04-26T05:24:03.171Z,604.6923
2023-04-26T05:25:05.751Z,603.0769
2023-04-26T05:26:06.418Z,603.3077
2023-04-26T05:27:08.053Z,603.0769
2023-04-26T05:28:09.730Z,603.3846
2023-04-26T05:29:11.394Z,598.5385
2023-04-26T05:30:13.043Z,597.7692
2023-04-26T05:31:14.646Z,601.3846
2023-04-26T05:32:16.356Z,602.9231
2023-04-26T05:33:18.965Z,601.5385
2023-04-26T05:34:19.700Z,603.6154
2023-04-26T05:35:21.298Z,601.7692
2023-04-26T05:36:22.955Z,598.3846
2023-04-26T05:37:25.527Z,594.7692
2023-04-26T05:38:27.184Z,593.6923
2023-04-26T05:39:27.836Z,592.9231
2023-04-26T05:40:29.516Z,594.5385
2023-04-26T05:41:31.075Z,592.6923
2023-04-26T05:42:32.785Z,592.2308
2023-04-26T05:43:34.425Z,593.8461
2023-04-26T05:44:36.448Z,594.0769
2023-04-26T05:45:37.835Z,594.4615
2023-04-26T05:46:39.814Z,593.6154
2023-04-26T05:47:40.985Z,595.6154
2023-04-26T05:48:42.613Z,598.5385
2023-04-26T05:49:44.254Z,598.6154
2023-04-26T05:50:45.907Z,596.1539
2023-04-26T05:51:47.520Z,595.5385
2023-04-26T05:52:49.165Z,593.3077
2023-04-26T05:53:51.173Z,593.0000
2023-04-26T05:54:52.467Z,594.5385
2023-04-26T05:55:54.192Z,594.7692
2023-04-26T05:56:57.822Z,596.3077
2023-04-26T05:57:57.458Z,595.6923
2023-04-26T05:59:00.029Z,592.0000
2023-04-26T06:00:00.843Z,590.0000
2023-04-26T06:01:02.516Z,590.0769
2023-04-26T06:02:04.089Z,590.2308
2023-04-26T06:03:05.957Z,590.6923
2023-04-26T06:04:07.898Z,588.9231
2023-04-26T06:05:09.414Z,586.1539
2023-04-26T06:06:10.725Z,583.9231
2023-04-26T06:07:12.353Z,587.4615
2023-04-26T06:08:13.966Z,588.7692
2023-04-26T06:09:16.526Z,592.0000
2023-04-26T06:10:17.328Z,592.0000
2023-04-26T06:11:19.456Z,590.9231
2023-04-26T06:12:20.578Z,590.3846
2023-04-26T06:13:22.264Z,591.4615
2023-04-26T06:15:25.612Z,588.0000
2023-04-26T06:16:27.924Z,588.6923
2023-04-26T06:17:28.920Z,587.8461
2023-04-26T06:18:30.491Z,586.0769
2023-04-26T06:19:32.180Z,585.4615
2023-04-26T06:20:33.853Z,584.6923
2023-04-26T06:21:35.937Z,585.9231
2023-04-26T06:22:37.096Z,585.6923
2023-04-26T06:23:38.788Z,585.7692
2023-04-26T06:24:40.372Z,586.6923
2023-04-26T06:25:42.138Z,586.1539
2023-04-26T06:26:43.758Z,585.0000
2023-04-26T06:27:45.384Z,581.5385
2023-04-26T06:28:47.008Z,581.5385
2023-04-26T06:29:49.448Z,580.0769
2023-04-26T06:30:50.359Z,580.4615
2023-04-26T06:31:52.029Z,580.5385
2023-04-26T06:32:53.654Z,580.6923
2023-04-26T06:33:55.578Z,580.8461
2023-04-26T06:34:56.908Z,579.6923
2023-04-26T06:35:58.650Z,577.4615
2023-04-26T06:37:00.450Z,577.0000
2023-04-26T06:38:01.884Z,578.2308
2023-04-26T06:39:03.501Z,579.0769
2023-04-26T06:40:05.894Z,579.7692
2023-04-26T06:41:06.883Z,576.6923
2023-04-26T06:42:08.575Z,576.7692
2023-04-26T06:43:10.144Z,577.2308
2023-04-26T06:44:11.800Z,577.0769
2023-04-26T06:45:13.402Z,575.4615
2023-04-26T06:46:15.221Z,576.5385
2023-04-26T06:47:16.761Z,578.7692
2023-04-26T06:48:18.387Z,578.8461
2023-04-26T06:49:20.030Z,574.5385
2023-04-26T06:50:21.631Z,571.8461
2023-04-26T06:51:23.384Z,573.0000
2023-04-26T06:52:24.992Z,574.8461
2023-04-26T06:53:26.638Z,577.2308
2023-04-26T06:54:28.254Z,577.3077
2023-04-26T06:55:29.932Z,575.2308
2023-04-26T06:56:31.555Z,573.4615
2023-04-26T06:57:33.195Z,571.3846
2023-04-26T06:58:34.767Z,573.6923
2023-04-26T06:59:36.431Z,576.7692
2023-04-26T07:00:38.109Z,575.4615
2023-04-26T07:01:39.839Z,573.0769
2023-04-26T07:02:41.512Z,570.6154
2023-04-26T07:03:43.189Z,571.5385
2023-04-26T07:04:45.001Z,572.0000
2023-04-26T07:05:46.322Z,570.4615
2023-04-26T07:06:48.356Z,570.7692
2023-04-26T07:07:49.629Z,572.9231
2023-04-26T07:08:53.421Z,576.2308
2023-04-26T07:09:52.897Z,578.1539
2023-04-26T07:10:54.522Z,576.0000
2023-04-26T07:11:56.446Z,574.8461
2023-04-26T07:12:58.909Z,577.6923
2023-04-26T07:13:59.874Z,579.0000
2023-04-26T07:15:01.095Z,576.9231
2023-04-26T07:16:02.900Z,573.1539
2023-04-26T07:17:04.442Z,573.4615
2023-04-26T07:18:06.489Z,576.7692
2023-04-26T07:19:07.868Z,574.1539
2023-04-26T07:20:09.350Z,574.1539
2023-04-26T07:21:11.013Z,572.2308
2023-04-26T07:22:12.666Z,570.6154
2023-04-26T07:23:14.407Z,572.6154
2023-04-26T07:24:15.978Z,572.0769
2023-04-26T07:25:17.534Z,571.3846
2023-04-26T07:26:19.236Z,573.0000
2023-04-26T07:27:21.861Z,572.4615
2023-04-26T07:28:22.693Z,571.2308
2023-04-26T07:29:24.243Z,569.1539
2023-04-26T07:30:26.037Z,567.1539
2023-04-26T07:31:27.547Z,567.4615
2023-04-26T07:32:29.311Z,569.0769
2023-04-26T07:33:31.009Z,569.4615
2023-04-26T07:34:32.573Z,568.7692
2023-04-26T07:35:34.144Z,566.2308
2023-04-26T07:36:35.856Z,565.0000
2023-04-26T07:37:37.451Z,568.3846
2023-04-26T07:38:39.146Z,570.6154
2023-04-26T07:39:42.463Z,568.0769
2023-04-26T07:40:42.440Z,567.5385
2023-04-26T07:41:44.324Z,565.1539
2023-04-26T07:42:46.451Z,562.4615
2023-04-26T07:43:47.282Z,561.9231
2023-04-26T07:44:49.009Z,562.7692
2023-04-26T07:45:50.593Z,569.8461
2023-04-26T07:46:52.389Z,574.9231
2023-04-26T07:47:53.904Z,580.3077
2023-04-26T07:48:55.529Z,579.3077
2023-04-26T07:49:57.141Z,579.3077
2023-04-26T07:50:59.281Z,583.5385
2023-04-26T07:52:00.417Z,588.0000
2023-04-26T07:53:02.079Z,588.0769
2023-04-26T07:54:03.804Z,587.7692
2023-04-26T07:55:05.396Z,589.6154
2023-04-26T07:56:07.424Z,590.6154
2023-04-26T07:57:08.718Z,588.2308
2023-04-26T07:58:10.384Z,585.6923
2023-04-26T07:59:11.983Z,588.3846
2023-04-26T08:00:13.671Z,587.9231
2023-04-26T08:01:16.816Z,586.1539
2023-04-26T08:02:17.502Z,583.8461
2023-04-26T08:03:18.778Z,581.8461
2023-04-26T08:04:20.381Z,579.2308
2023-04-26T08:05:23.067Z,580.2308
2023-04-26T08:06:23.796Z,579.8461
2023-04-26T08:07:25.262Z,580.2308
2023-04-26T08:08:27.002Z,579.2308
2023-04-26T08:09:28.528Z,581.2308
2023-04-26T08:10:30.218Z,583.2308
2023-04-26T08:11:31.897Z,581.0769
2023-04-26T08:12:33.538Z,580.3846
2023-04-26T08:13:35.077Z,578.2308
2023-04-26T08:14:36.810Z,577.3846
2023-04-26T08:15:38.389Z,577.0000
2023-04-26T08:16:40.163Z,579.2308
2023-04-26T08:17:42.068Z,579.0769
2023-04-26T08:18:46.044Z,578.4615
2023-04-26T08:19:45.062Z,577.3077
2023-04-26T08:20:46.617Z,578.5385
2023-04-26T08:21:48.383Z,578.5385
2023-04-26T08:22:49.998Z,579.3077
2023-04-26T08:23:51.739Z,577.7692
2023-04-26T08:24:53.228Z,579.1539
2023-04-26T08:25:54.934Z,580.3846
2023-04-26T08:26:56.559Z,579.5385
2023-04-26T08:27:58.208Z,576.8461
2023-04-26T08:28:59.915Z,574.5385
2023-04-26T08:30:01.624Z,572.5385
2023-04-26T08:31:03.206Z,570.0769
2023-04-26T08:32:04.958Z,570.8461
2023-04-26T08:33:06.573Z,571.6154
2023-04-26T08:34:08.041Z,573.3846
2023-04-26T08:35:09.688Z,573.9231
2023-04-26T08:36:11.417Z,572.6923
2023-04-26T08:37:13.096Z,571.3077
2023-04-26T08:38:14.681Z,571.1539
2023-04-26T08:39:16.240Z,570.3846
2023-04-26T08:40:18.025Z,570.8461
2023-04-26T08:41:19.547Z,568.6154
2023-04-26T08:42:21.360Z,569.6923
2023-04-26T08:43:22.920Z,570.7692
2023-04-26T08:44:24.522Z,571.0000
2023-04-26T08:45:26.175Z,571.3077
2023-04-26T08:46:27.877Z,570.0000
2023-04-26T08:47:29.480Z,568.5385
2023-04-26T08:48:31.170Z,566.1539
2023-04-26T08:49:32.686Z,570.3077
2023-04-26T08:50:34.419Z,574.6923
2023-04-26T08:51:36.057Z,579.7692
2023-04-26T08:52:37.743Z,583.3077
2023-04-26T08:53:39.361Z,581.9231
2023-04-26T08:54:40.915Z,578.0000
2023-04-26T08:55:42.622Z,575.9231
2023-04-26T08:56:44.217Z,576.0000
2023-04-26T08:57:45.993Z,579.1539
2023-04-26T08:58:47.591Z,581.9231
2023-04-26T08:59:49.211Z,582.5385
2023-04-26T09:00:50.956Z,579.6154
2023-04-26T09:01:52.541Z,578.4615
2023-04-26T09:02:54.413Z,577.3846
2023-04-26T09:03:56.181Z,577.3846
2023-04-26T09:04:57.458Z,578.5385
2023-04-26T09:06:00.175Z,577.4615
2023-04-26T09:07:00.690Z,576.3846
2023-04-26T09:08:02.432Z,575.3846
2023-04-26T09:09:04.031Z,574.4615
2023-04-26T09:10:05.661Z,574.6923
2023-04-26T09:11:07.245Z,575.0000
2023-04-26T09:12:08.985Z,574.5385
2023-04-26T09:13:10.613Z,573.0769
2023-04-26T09:14:12.252Z,570.9231
2023-04-26T09:15:13.897Z,570.8461
2023-04-26T09:16:15.611Z,570.3077
2023-04-26T09:17:17.184Z,570.7692
2023-04-26T09:18:18.786Z,573.6154
2023-04-26T09:19:22.046Z,575.0000
2023-04-26T09:20:22.089Z,575.3077
2023-04-26T09:21:23.668Z,575.5385
2023-04-26T09:22:25.357Z,576.0000
2023-04-26T09:23:26.987Z,578.0000
2023-04-26T09:24:29.521Z,586.7692
2023-04-26T09:25:30.259Z,588.1539
2023-04-26T09:26:31.892Z,587.6154
2023-04-26T09:27:33.577Z,586.4615
2023-04-26T09:28:35.166Z,584.9231
2023-04-26T09:29:36.865Z,584.0769
2023-04-26T09:30:38.972Z,584.1539
2023-04-26T09:31:40.356Z,582.0769
2023-04-26T09:32:41.979Z,578.6154
2023-04-26T09:33:43.595Z,577.6154
2023-04-26T09:34:45.604Z,580.3077
2023-04-26T09:35:46.885Z,582.8461
2023-04-26T09:36:48.614Z,584.3077
2023-04-26T09:37:58.429Z,586.1539
2023-04-26T09:38:52.017Z,587.6154
2023-04-26T09:39:53.479Z,588.3077
2023-04-26T09:40:55.010Z,588.6154
2023-04-26T09:41:56.774Z,588.3846
2023-04-26T09:42:59.312Z,588.0769
2023-04-26T09:44:00.686Z,586.7692
2023-04-26T09:45:01.703Z,586.2308
2023-04-26T09:46:04.292Z,589.8461
2023-04-26T09:47:05.246Z,593.6923
2023-04-26T09:48:06.650Z,595.4615
2023-04-26T09:49:09.242Z,595.7692
2023-04-26T09:50:10.204Z,594.6923
2023-04-26T09:51:11.662Z,594.8461
2023-04-26T09:52:13.166Z,593.3846
2023-04-26T09:53:14.834Z,590.8461
2023-04-26T09:54:16.527Z,586.4615
2023-04-26T09:55:25.476Z,587.6154
2023-04-26T09:56:19.966Z,589.8333
2023-04-26T09:57:21.421Z,587.7692
2023-04-26T09:58:23.031Z,585.0769
2023-04-26T09:59:24.667Z,583.7692
2023-04-26T10:00:26.391Z,583.7692
2023-04-26T10:01:28.139Z,584.8461
2023-04-26T10:02:29.707Z,588.0769
2023-04-26T10:03:31.416Z,589.7692
2023-04-26T10:04:32.993Z,585.2308
2023-04-26T10:05:34.493Z,584.0000
2023-04-26T10:06:36.262Z,581.8461
2023-04-26T10:07:38.821Z,584.0000
2023-04-26T10:08:40.434Z,585.6923
2023-04-26T10:09:41.169Z,587.6154
2023-04-26T10:10:43.018Z,589.7692
2023-04-26T10:11:44.710Z,589.6154
2023-04-26T10:12:48.052Z,587.5385
2023-04-26T10:13:48.078Z,586.3846
2023-04-26T10:14:50.294Z,584.2308
2023-04-26T10:15:51.109Z,584.5385
2023-04-26T10:16:53.656Z,583.3077
2023-04-26T10:17:54.411Z,583.0000
2023-04-26T10:18:56.190Z,592.2308
2023-04-26T10:19:57.689Z,593.3846
2023-04-26T10:20:59.384Z,596.3846
2023-04-26T10:22:01.027Z,597.1539
2023-04-26T10:23:03.529Z,594.0769
2023-04-26T10:24:04.521Z,590.0000
2023-04-26T10:25:06.818Z,586.0769
2023-04-26T10:26:07.573Z,584.3846
2023-04-26T10:27:09.154Z,585.2308
2023-04-26T10:28:10.901Z,588.1539
2023-04-26T10:29:12.482Z,590.0000
2023-04-26T10:30:14.090Z,588.1539
2023-04-26T10:31:15.783Z,585.9231
2023-04-26T10:32:17.635Z,583.6154
2023-04-26T10:33:19.177Z,581.5385
2023-04-26T10:34:20.638Z,581.2308
2023-04-26T10:35:22.400Z,586.6154
2023-04-26T10:36:23.915Z,586.3077
2023-04-26T10:37:25.602Z,581.8461
2023-04-26T10:38:27.256Z,581.5385
2023-04-26T10:39:29.056Z,576.2308
2023-04-26T10:40:30.598Z,578.8461
2023-04-26T10:41:33.217Z,579.9231
2023-04-26T10:42:33.848Z,580.0000
2023-04-26T10:43:35.516Z,579.9231
2023-04-26T10:44:37.170Z,579.0000
2023-04-26T10:45:38.993Z,577.5385
2023-04-26T10:46:41.520Z,576.4615
2023-04-26T10:47:42.022Z,577.5385
2023-04-26T10:48:43.753Z,576.3846
2023-04-26T10:49:45.388Z,575.9231
2023-04-26T10:50:48.046Z,574.3846
2023-04-26T10:51:49.647Z,574.6923
2023-04-26T10:52:50.406Z,574.7692
2023-04-26T10:53:54.006Z,576.4615
2023-04-26T10:54:53.605Z,578.1539
2023-04-26T10:55:55.214Z,578.8461
2023-04-26T10:56:56.918Z,582.7692
2023-04-26T10:57:58.545Z,584.4615
2023-04-26T10:59:00.193Z,584.6923
2023-04-26T11:00:01.788Z,584.6923
2023-04-26T11:01:03.556Z,582.9231
2023-04-26T11:02:05.123Z,581.4615
2023-04-26T11:03:07.059Z,581.8461
2023-04-26T11:04:08.580Z,584.0769
2023-04-26T11:05:10.093Z,585.8461
2023-04-26T11:06:12.620Z,586.6923
2023-04-26T11:07:13.382Z,588.0769
2023-04-26T11:08:15.028Z,587.9231
2023-04-26T11:09:16.606Z,587.5385
2023-04-26T11:10:18.330Z,584.8461
2023-04-26T11:11:19.974Z,583.9231
2023-04-26T11:12:21.640Z,581.8461
2023-04-26T11:13:23.259Z,585.3846
2023-04-26T11:14:24.934Z,586.4615
2023-04-26T11:15:26.497Z,583.7692
2023-04-26T11:16:29.195Z,581.3846
2023-04-26T11:17:30.111Z,581.3846
2023-04-26T11:18:31.590Z,581.3077
2023-04-26T11:19:33.218Z,581.0000
2023-04-26T11:20:34.842Z,577.7692
2023-04-26T11:21:36.484Z,576.8461
2023-04-26T11:22:38.629Z,577.4615
2023-04-26T11:23:39.720Z,576.2308
2023-04-26T11:24:41.406Z,575.5385
2023-04-26T11:25:43.034Z,578.2308
2023-04-26T11:26:44.748Z,578.6923
2023-04-26T11:27:46.386Z,581.6923
2023-04-26T11:28:48.041Z,581.1539
2023-04-26T11:29:49.687Z,582.6923
2023-04-26T11:30:51.382Z,583.9231
2023-04-26T11:31:53.200Z,585.3077
2023-04-26T11:32:54.725Z,584.4615
2023-04-26T11:33:56.868Z,583.7692
2023-04-26T11:34:58.026Z,581.9231
2023-04-26T11:35:59.643Z,580.8461
2023-04-26T11:37:01.640Z,579.1539
2023-04-26T11:38:02.973Z,578.1539
2023-04-26T11:39:04.624Z,577.9231
2023-04-26T11:40:06.183Z,577.2308
2023-04-26T11:41:07.946Z,575.4615
2023-04-26T11:42:09.526Z,577.3077
2023-04-26T11:43:11.306Z,576.3846
2023-04-26T11:44:12.892Z,574.9231
2023-04-26T11:45:14.499Z,573.9231
2023-04-26T11:46:16.111Z,575.4615
2023-04-26T11:47:17.841Z,578.4615
2023-04-26T11:48:19.506Z,580.8461
2023-04-26T11:49:21.112Z,578.3077
2023-04-26T11:50:22.713Z,576.4615
2023-04-26T11:51:24.390Z,576.2308
2023-04-26T11:52:26.048Z,577.0769
2023-04-26T11:53:27.785Z,576.2308
2023-04-26T11:54:29.280Z,577.1539
2023-04-26T11:55:31.014Z,576.6923
2023-04-26T11:56:32.609Z,577.9231
2023-04-26T11:57:34.339Z,577.4615
2023-04-26T11:58:36.110Z,575.1539
2023-04-26T11:59:37.558Z,573.6154
2023-04-26T12:00:39.188Z,572.6154
2023-04-26T12:01:40.950Z,571.2308
2023-04-26T12:02:42.633Z,571.0769
2023-04-26T12:03:44.370Z,573.0000
2023-04-26T12:04:46.033Z,574.9231